sensor_id;sensor_type;location;lat;lon;timestamp;pressure;altitude;pressure_sealevel;temperature;humidity
62694;BME280;48759;52.544;13.418;2023-02-15T00:00:18;102565.28;;;5.33;100.00
62694;BME280;48759;52.544;13.418;2023-02-15T00:02:45;102569.25;;;5.07;100.00
62694;BME280;48759;52.544;13.418;2023-02-15T00:05:13;102568.03;;;4.78;100.00
62694;BME280;48759;52.544;13.418;2023-02-15T00:07:40;102577.16;;;4.43;100.00
62694;BME280;48759;52.544;13.418;2023-02-15T00:10:07;102571.75;;;4.66;100.00
62694;BME280;48759;52.544;13.418;2023-02-15T00:12:34;102576.94;;;4.57;100.00
62694;BME280;48759;52.544;13.418;2023-02-15T00:15:00;102580.63;;;4.45;100.00
62694;BME280;48759;52.544;13.418;2023-02-15T00:17:27;102570.13;;;4.06;100.00
62694;BME280;48759;52.544;13.418;2023-02-15T00:19:54;102560.94;;;3.96;100.00
62694;BME280;48759;52.544;13.418;2023-02-15T00:22:22;102557.91;;;4.11;100.00
62694;BME280;48759;52.544;13.418;2023-02-15T00:24:49;102549.31;;;4.05;100.00
62694;BME280;48759;52.544;13.418;2023-02-15T00:27:16;102552.28;;;4.02;100.00
62694;BME280;48759;52.544;13.418;2023-02-15T00:29:42;102544.00;;;3.68;100.00
62694;BME280;48759;52.544;13.418;2023-02-15T00:32:09;102539.88;;;3.87;100.00
62694;BME280;48759;52.544;13.418;2023-02-15T00:34:36;102534.84;;;3.69;100.00
62694;BME280;48759;52.544;13.418;2023-02-15T00:37:02;102540.09;;;3.83;100.00
62694;BME280;48759;52.544;13.418;2023-02-15T00:39:30;102533.56;;;3.97;100.00
62694;BME280;48759;52.544;13.418;2023-02-15T00:41:57;102533.50;;;4.10;100.00
62694;BME280;48759;52.544;13.418;2023-02-15T00:44:24;102544.38;;;3.75;100.00
62694;BME280;48759;52.544;13.418;2023-02-15T00:46:50;102545.94;;;3.90;100.00
62694;BME280;48759;52.544;13.418;2023-02-15T00:49:17;102548.44;;;4.04;100.00
62694;BME280;48759;52.544;13.418;2023-02-15T00:51:43;102558.22;;;3.96;100.00
62694;BME280;48759;52.544;13.418;2023-02-15T00:54:10;102545.81;;;3.92;100.00
62694;BME280;48759;52.544;13.418;2023-02-15T00:56:38;102550.88;;;3.85;100.00
62694;BME280;48759;52.544;13.418;2023-02-15T00:59:05;102544.06;;;3.91;100.00
62694;BME280;48759;52.544;13.418;2023-02-15T01:01:32;102537.13;;;3.87;100.00
62694;BME280;48759;52.544;13.418;2023-02-15T01:03:58;102545.34;;;3.63;100.00
62694;BME280;48759;52.544;13.418;2023-02-15T01:06:25;102539.50;;;3.56;100.00
62694;BME280;48759;52.544;13.418;2023-02-15T01:08:52;102532.06;;;3.58;100.00
62694;BME280;48759;52.544;13.418;2023-02-15T01:11:21;102526.38;;;3.61;100.00
62694;BME280;48759;52.544;13.418;2023-02-15T01:13:50;102525.88;;;3.56;100.00
62694;BME280;48759;52.544;13.418;2023-02-15T01:16:17;102524.84;;;3.46;100.00
62694;BME280;48759;52.544;13.418;2023-02-15T01:18:44;102512.81;;;3.25;100.00
62694;BME280;48759;52.544;13.418;2023-02-15T01:21:12;102515.63;;;3.36;100.00
62694;BME280;48759;52.544;13.418;2023-02-15T01:23:39;102511.06;;;3.24;100.00
62694;BME280;48759;52.544;13.418;2023-02-15T01:26:06;102515.47;;;3.14;100.00
62694;BME280;48759;52.544;13.418;2023-02-15T01:28:33;102504.28;;;3.05;100.00
62694;BME280;48759;52.544;13.418;2023-02-15T01:31:06;102509.56;;;3.20;100.00
62694;BME280;48759;52.544;13.418;2023-02-15T01:33:34;102516.16;;;3.28;100.00
62694;BME280;48759;52.544;13.418;2023-02-15T01:36:01;102502.16;;;3.22;100.00
62694;BME280;48759;52.544;13.418;2023-02-15T01:38:28;102503.09;;;3.33;100.00
62694;BME280;48759;52.544;13.418;2023-02-15T01:40:55;102493.22;;;3.20;100.00
62694;BME280;48759;52.544;13.418;2023-02-15T01:43:44;102490.84;;;2.91;100.00
62694;BME280;48759;52.544;13.418;2023-02-15T01:46:14;102488.59;;;2.85;100.00
62694;BME280;48759;52.544;13.418;2023-02-15T01:48:45;102479.41;;;2.86;100.00
62694;BME280;48759;52.544;13.418;2023-02-15T01:51:14;102477.03;;;2.82;100.00
62694;BME280;48759;52.544;13.418;2023-02-15T01:53:48;102476.41;;;2.78;100.00
62694;BME280;48759;52.544;13.418;2023-02-15T01:56:19;102475.59;;;3.01;100.00
62694;BME280;48759;52.544;13.418;2023-02-15T01:58:49;102477.06;;;3.05;100.00
62694;BME280;48759;52.544;13.418;2023-02-15T02:01:19;102466.19;;;3.05;100.00
62694;BME280;48759;52.544;13.418;2023-02-15T02:03:57;102462.41;;;2.95;100.00
62694;BME280;48759;52.544;13.418;2023-02-15T02:06:26;102457.44;;;2.89;100.00
62694;BME280;48759;52.544;13.418;2023-02-15T02:08:54;102454.84;;;2.88;100.00
62694;BME280;48759;52.544;13.418;2023-02-15T02:11:21;102457.75;;;2.97;100.00
62694;BME280;48759;52.544;13.418;2023-02-15T02:13:48;102454.84;;;2.88;100.00
62694;BME280;48759;52.544;13.418;2023-02-15T02:16:22;102449.63;;;2.85;100.00
62694;BME280;48759;52.544;13.418;2023-02-15T02:18:59;102447.44;;;2.90;100.00
62694;BME280;48759;52.544;13.418;2023-02-15T02:22:08;102450.06;;;2.91;100.00
62694;BME280;48759;52.544;13.418;2023-02-15T02:27:44;102449.91;;;2.56;100.00
62694;BME280;48759;52.544;13.418;2023-02-15T02:30:33;102446.88;;;2.61;100.00
62694;BME280;48759;52.544;13.418;2023-02-15T02:33:44;102450.94;;;2.43;100.00
62694;BME280;48759;52.544;13.418;2023-02-15T02:36:21;102442.56;;;2.46;100.00
62694;BME280;48759;52.544;13.418;2023-02-15T02:39:01;102433.66;;;2.31;100.00
62694;BME280;48759;52.544;13.418;2023-02-15T02:41:37;102428.53;;;2.52;100.00
62694;BME280;48759;52.544;13.418;2023-02-15T02:44:11;102431.25;;;2.39;100.00
62694;BME280;48759;52.544;13.418;2023-02-15T02:46:46;102428.75;;;2.49;100.00
62694;BME280;48759;52.544;13.418;2023-02-15T02:49:15;102427.22;;;2.81;100.00
62694;BME280;48759;52.544;13.418;2023-02-15T02:51:41;102432.06;;;2.65;100.00
62694;BME280;48759;52.544;13.418;2023-02-15T02:54:08;102426.41;;;2.68;100.00
62694;BME280;48759;52.544;13.418;2023-02-15T02:56:37;102425.25;;;2.59;100.00
62694;BME280;48759;52.544;13.418;2023-02-15T02:59:11;102412.44;;;2.49;100.00
62694;BME280;48759;52.544;13.418;2023-02-15T03:01:42;102414.13;;;2.62;100.00
62694;BME280;48759;52.544;13.418;2023-02-15T03:04:15;102407.75;;;2.51;100.00
62694;BME280;48759;52.544;13.418;2023-02-15T03:06:46;102408.28;;;2.56;100.00
62694;BME280;48759;52.544;13.418;2023-02-15T03:09:20;102415.84;;;2.27;100.00
62694;BME280;48759;52.544;13.418;2023-02-15T03:11:50;102414.78;;;2.17;100.00
62694;BME280;48759;52.544;13.418;2023-02-15T03:14:19;102411.53;;;2.12;100.00
62694;BME280;48759;52.544;13.418;2023-02-15T03:16:47;102411.19;;;2.16;100.00
62694;BME280;48759;52.544;13.418;2023-02-15T03:19:20;102410.88;;;2.08;100.00
62694;BME280;48759;52.544;13.418;2023-02-15T03:21:51;102411.75;;;2.21;100.00
62694;BME280;48759;52.544;13.418;2023-02-15T03:24:32;102409.34;;;2.17;100.00
62694;BME280;48759;52.544;13.418;2023-02-15T03:27:02;102397.59;;;2.16;100.00
62694;BME280;48759;52.544;13.418;2023-02-15T03:29:31;102395.69;;;2.06;100.00
62694;BME280;48759;52.544;13.418;2023-02-15T03:32:03;102393.06;;;2.04;100.00
62694;BME280;48759;52.544;13.418;2023-02-15T03:34:33;102393.06;;;2.04;100.00
62694;BME280;48759;52.544;13.418;2023-02-15T03:37:04;102389.84;;;1.99;100.00
62694;BME280;48759;52.544;13.418;2023-02-15T03:39:35;102386.91;;;1.89;100.00
62694;BME280;48759;52.544;13.418;2023-02-15T03:42:09;102391.34;;;1.78;100.00
62694;BME280;48759;52.544;13.418;2023-02-15T03:44:44;102384.38;;;1.86;100.00
62694;BME280;48759;52.544;13.418;2023-02-15T03:47:15;102386.56;;;1.81;100.00
62694;BME280;48759;52.544;13.418;2023-02-15T03:49:48;102385.91;;;1.78;100.00
62694;BME280;48759;52.544;13.418;2023-02-15T03:52:17;102383.75;;;1.83;100.00
62694;BME280;48759;52.544;13.418;2023-02-15T03:54:44;102386.00;;;1.76;100.00
62694;BME280;48759;52.544;13.418;2023-02-15T03:57:14;102378.00;;;1.75;100.00
62694;BME280;48759;52.544;13.418;2023-02-15T04:00:00;102373.56;;;1.74;100.00
62694;BME280;48759;52.544;13.418;2023-02-15T04:02:52;102368.44;;;1.69;100.00
62694;BME280;48759;52.544;13.418;2023-02-15T04:05:22;102368.00;;;1.63;100.00
62694;BME280;48759;52.544;13.418;2023-02-15T04:07:49;102371.38;;;1.79;100.00
62694;BME280;48759;52.544;13.418;2023-02-15T04:10:16;102365.63;;;1.71;100.00
62694;BME280;48759;52.544;13.418;2023-02-15T04:13:00;102374.50;;;1.98;100.00
62694;BME280;48759;52.544;13.418;2023-02-15T04:15:27;102368.28;;;2.09;100.00
62694;BME280;48759;52.544;13.418;2023-02-15T04:18:11;102363.13;;;1.80;100.00
62694;BME280;48759;52.544;13.418;2023-02-15T04:20:43;102364.75;;;1.83;100.00
62694;BME280;48759;52.544;13.418;2023-02-15T04:23:27;102358.25;;;1.73;100.00
62694;BME280;48759;52.544;13.418;2023-02-15T04:26:11;102361.41;;;1.67;100.00
62694;BME280;48759;52.544;13.418;2023-02-15T04:28:38;102352.28;;;1.68;100.00
62694;BME280;48759;52.544;13.418;2023-02-15T04:31:04;102346.63;;;1.71;100.00
62694;BME280;48759;52.544;13.418;2023-02-15T04:33:31;102359.19;;;1.84;100.00
62694;BME280;48759;52.544;13.418;2023-02-15T04:36:00;102353.97;;;1.94;100.00
62694;BME280;48759;52.544;13.418;2023-02-15T04:38:26;102354.44;;;1.88;100.00
62694;BME280;48759;52.544;13.418;2023-02-15T04:40:53;102348.16;;;1.49;100.00
62694;BME280;48759;52.544;13.418;2023-02-15T04:43:20;102343.16;;;1.81;100.00
62694;BME280;48759;52.544;13.418;2023-02-15T04:45:50;102354.00;;;1.81;100.00
62694;BME280;48759;52.544;13.418;2023-02-15T04:48:17;102342.25;;;1.93;100.00
62694;BME280;48759;52.544;13.418;2023-02-15T04:50:44;102342.25;;;1.93;100.00
62694;BME280;48759;52.544;13.418;2023-02-15T04:53:12;102327.59;;;1.96;100.00
62694;BME280;48759;52.544;13.418;2023-02-15T04:55:39;102319.91;;;1.77;100.00
62694;BME280;48759;52.544;13.418;2023-02-15T04:58:05;102316.75;;;1.83;100.00
62694;BME280;48759;52.544;13.418;2023-02-15T05:00:32;102313.19;;;1.70;100.00
62694;BME280;48759;52.544;13.418;2023-02-15T05:02:59;102317.97;;;1.67;100.00
62694;BME280;48759;52.544;13.418;2023-02-15T05:05:25;102311.00;;;1.88;100.00
62694;BME280;48759;52.544;13.418;2023-02-15T05:07:52;102301.88;;;1.89;100.00
62694;BME280;48759;52.544;13.418;2023-02-15T05:10:20;102300.47;;;1.45;100.00
62694;BME280;48759;52.544;13.418;2023-02-15T05:12:47;102306.91;;;1.57;100.00
62694;BME280;48759;52.544;13.418;2023-02-15T05:15:14;102294.53;;;1.66;100.00
62694;BME280;48759;52.544;13.418;2023-02-15T05:17:41;102298.00;;;1.68;100.00
62694;BME280;48759;52.544;13.418;2023-02-15T05:20:08;102306.88;;;1.82;100.00
62694;BME280;48759;52.544;13.418;2023-02-15T05:22:35;102302.09;;;1.86;100.00
62694;BME280;48759;52.544;13.418;2023-02-15T05:25:02;102298.59;;;1.84;100.00
62694;BME280;48759;52.544;13.418;2023-02-15T05:27:47;102301.44;;;1.70;100.00
62694;BME280;48759;52.544;13.418;2023-02-15T05:30:32;102294.59;;;1.77;100.00
62694;BME280;48759;52.544;13.418;2023-02-15T05:32:58;102293.16;;;1.84;100.00
62694;BME280;48759;52.544;13.418;2023-02-15T05:35:25;102292.00;;;1.88;100.00
62694;BME280;48759;52.544;13.418;2023-02-15T05:37:52;102295.16;;;1.82;100.00
62694;BME280;48759;52.544;13.418;2023-02-15T05:40:18;102291.25;;;1.73;100.00
62694;BME280;48759;52.544;13.418;2023-02-15T05:42:45;102290.41;;;1.60;100.00
62694;BME280;48759;52.544;13.418;2023-02-15T05:45:13;102286.84;;;1.60;100.00
62694;BME280;48759;52.544;13.418;2023-02-15T05:47:40;102280.94;;;1.53;100.00
62694;BME280;48759;52.544;13.418;2023-02-15T05:50:08;102285.63;;;1.38;100.00
62694;BME280;48759;52.544;13.418;2023-02-15T05:52:35;102289.53;;;1.60;100.00
62694;BME280;48759;52.544;13.418;2023-02-15T05:55:02;102276.28;;;1.55;100.00
62694;BME280;48759;52.544;13.418;2023-02-15T05:57:29;102274.97;;;1.73;100.00
62694;BME280;48759;52.544;13.418;2023-02-15T05:59:56;102278.13;;;1.54;100.00
62694;BME280;48759;52.544;13.418;2023-02-15T06:02:24;102278.13;;;1.67;100.00
62694;BME280;48759;52.544;13.418;2023-02-15T06:04:51;102275.66;;;1.51;100.00
62694;BME280;48759;52.544;13.418;2023-02-15T06:07:18;102279.78;;;1.44;100.00
62694;BME280;48759;52.544;13.418;2023-02-15T06:09:44;102278.19;;;1.91;100.00
62694;BME280;48759;52.544;13.418;2023-02-15T06:12:11;102280.81;;;1.80;100.00
62694;BME280;48759;52.544;13.418;2023-02-15T06:14:38;102276.13;;;1.94;100.00
62694;BME280;48759;52.544;13.418;2023-02-15T06:17:05;102278.56;;;2.10;100.00
62694;BME280;48759;52.544;13.418;2023-02-15T06:19:33;102277.41;;;2.25;100.00
62694;BME280;48759;52.544;13.418;2023-02-15T06:22:00;102282.75;;;2.27;100.00
62694;BME280;48759;52.544;13.418;2023-02-15T06:24:26;102276.50;;;2.14;100.00
62694;BME280;48759;52.544;13.418;2023-02-15T06:26:53;102277.66;;;2.22;100.00
62694;BME280;48759;52.544;13.418;2023-02-15T06:29:19;102285.41;;;2.40;100.00
62694;BME280;48759;52.544;13.418;2023-02-15T06:31:46;102273.91;;;2.12;100.00
62694;BME280;48759;52.544;13.418;2023-02-15T06:34:13;102273.13;;;2.10;100.00
62694;BME280;48759;52.544;13.418;2023-02-15T06:36:41;102270.91;;;2.28;100.00
62694;BME280;48759;52.544;13.418;2023-02-15T06:39:08;102278.00;;;2.42;100.00
62694;BME280;48759;52.544;13.418;2023-02-15T06:41:34;102280.81;;;2.53;100.00
62694;BME280;48759;52.544;13.418;2023-02-15T06:44:01;102276.53;;;2.61;100.00
62694;BME280;48759;52.544;13.418;2023-02-15T06:46:28;102279.06;;;2.52;100.00
62694;BME280;48759;52.544;13.418;2023-02-15T06:48:54;102268.69;;;2.57;100.00
62694;BME280;48759;52.544;13.418;2023-02-15T06:51:21;102274.41;;;2.65;100.00
62694;BME280;48759;52.544;13.418;2023-02-15T06:53:49;102268.28;;;2.74;100.00
62694;BME280;48759;52.544;13.418;2023-02-15T06:56:16;102274.75;;;2.84;100.00
62694;BME280;48759;52.544;13.418;2023-02-15T06:58:43;102268.28;;;2.74;100.00
62694;BME280;48759;52.544;13.418;2023-02-15T07:01:11;102269.09;;;2.98;100.00
62694;BME280;48759;52.544;13.418;2023-02-15T07:03:38;102264.81;;;2.72;100.00
62694;BME280;48759;52.544;13.418;2023-02-15T07:06:05;102268.06;;;2.77;100.00
62694;BME280;48759;52.544;13.418;2023-02-15T07:08:34;102267.25;;;3.10;100.00
62694;BME280;48759;52.544;13.418;2023-02-15T07:11:02;102263.06;;;3.06;100.00
62694;BME280;48759;52.544;13.418;2023-02-15T07:13:43;102268.13;;;3.10;100.00
62694;BME280;48759;52.544;13.418;2023-02-15T07:16:10;102262.72;;;3.22;100.00
62694;BME280;48759;52.544;13.418;2023-02-15T07:18:37;102269.97;;;3.45;100.00
62694;BME280;48759;52.544;13.418;2023-02-15T07:21:04;102260.50;;;3.27;100.00
62694;BME280;48759;52.544;13.418;2023-02-15T07:23:33;102252.16;;;3.41;100.00
62694;BME280;48759;52.544;13.418;2023-02-15T07:26:02;102255.06;;;3.27;100.00
62694;BME280;48759;52.544;13.418;2023-02-15T07:28:29;102244.47;;;3.46;100.00
62694;BME280;48759;52.544;13.418;2023-02-15T07:30:56;102249.94;;;3.68;100.00
62694;BME280;48759;52.544;13.418;2023-02-15T07:33:24;102247.94;;;3.70;100.00
62694;BME280;48759;52.544;13.418;2023-02-15T07:35:53;102247.22;;;3.79;100.00
62694;BME280;48759;52.544;13.418;2023-02-15T07:38:21;102236.06;;;3.38;100.00
62694;BME280;48759;52.544;13.418;2023-02-15T07:40:47;102242.38;;;3.61;100.00
62694;BME280;48759;52.544;13.418;2023-02-15T07:43:16;102232.97;;;3.42;100.00
62694;BME280;48759;52.544;13.418;2023-02-15T07:45:43;102232.50;;;3.49;100.00
62694;BME280;48759;52.544;13.418;2023-02-15T07:48:10;102235.94;;;3.84;100.00
62694;BME280;48759;52.544;13.418;2023-02-15T07:50:36;102220.44;;;3.96;100.00
62694;BME280;48759;52.544;13.418;2023-02-15T07:53:03;102221.16;;;3.98;100.00
62694;BME280;48759;52.544;13.418;2023-02-15T07:55:30;102226.13;;;3.93;100.00
62694;BME280;48759;52.544;13.418;2023-02-15T07:57:57;102217.72;;;3.96;100.00
62694;BME280;48759;52.544;13.418;2023-02-15T08:00:28;102216.53;;;4.20;100.00
62694;BME280;48759;52.544;13.418;2023-02-15T08:03:22;102219.88;;;4.24;100.00
62694;BME280;48759;52.544;13.418;2023-02-15T08:05:55;102209.63;;;4.69;100.00
62694;BME280;48759;52.544;13.418;2023-02-15T08:08:22;102209.13;;;4.43;100.00
62694;BME280;48759;52.544;13.418;2023-02-15T08:10:59;102215.75;;;4.61;100.00
62694;BME280;48759;52.544;13.418;2023-02-15T08:13:44;102218.63;;;4.81;100.00
62694;BME280;48759;52.544;13.418;2023-02-15T08:16:22;102217.16;;;4.77;100.00
62694;BME280;48759;52.544;13.418;2023-02-15T08:18:49;102215.16;;;4.79;100.00
62694;BME280;48759;52.544;13.418;2023-02-15T08:21:16;102220.09;;;4.64;100.00
62694;BME280;48759;52.544;13.418;2023-02-15T08:23:43;102222.34;;;4.80;100.00
62694;BME280;48759;52.544;13.418;2023-02-15T08:26:10;102220.63;;;4.79;100.00
62694;BME280;48759;52.544;13.418;2023-02-15T08:28:37;102220.09;;;4.85;100.00
62694;BME280;48759;52.544;13.418;2023-02-15T08:31:04;102212.91;;;4.84;100.00
62694;BME280;48759;52.544;13.418;2023-02-15T08:33:33;102213.59;;;4.97;100.00
62694;BME280;48759;52.544;13.418;2023-02-15T08:36:02;102211.31;;;5.02;100.00
62694;BME280;48759;52.544;13.418;2023-02-15T08:38:29;102214.38;;;5.29;100.00
62694;BME280;48759;52.544;13.418;2023-02-15T08:40:56;102202.44;;;5.30;100.00
62694;BME280;48759;52.544;13.418;2023-02-15T08:43:22;102210.13;;;4.95;100.00
62694;BME280;48759;52.544;13.418;2023-02-15T08:45:49;102201.00;;;5.26;100.00
62694;BME280;48759;52.544;13.418;2023-02-15T08:48:16;102200.50;;;5.42;100.00
62694;BME280;48759;52.544;13.418;2023-02-15T08:50:44;102194.59;;;5.37;100.00
62694;BME280;48759;52.544;13.418;2023-02-15T08:53:11;102188.69;;;5.72;100.00
62694;BME280;48759;52.544;13.418;2023-02-15T08:55:38;102187.00;;;5.90;100.00
62694;BME280;48759;52.544;13.418;2023-02-15T08:58:05;102192.00;;;5.35;100.00
62694;BME280;48759;52.544;13.418;2023-02-15T09:00:31;102177.16;;;5.59;100.00
62694;BME280;48759;52.544;13.418;2023-02-15T09:02:58;102173.75;;;5.76;100.00
62694;BME280;48759;52.544;13.418;2023-02-15T09:05:25;102174.03;;;5.73;100.00
62694;BME280;48759;52.544;13.418;2023-02-15T09:07:53;102175.78;;;5.93;100.00
62694;BME280;48759;52.544;13.418;2023-02-15T09:10:19;102170.34;;;6.12;100.00
62694;BME280;48759;52.544;13.418;2023-02-15T09:12:46;102175.00;;;6.31;100.00
62694;BME280;48759;52.544;13.418;2023-02-15T09:15:15;102179.00;;;6.27;100.00
62694;BME280;48759;52.544;13.418;2023-02-15T09:17:42;102177.28;;;6.55;100.00
62694;BME280;48759;52.544;13.418;2023-02-15T09:20:09;102178.75;;;6.78;100.00
62694;BME280;48759;52.544;13.418;2023-02-15T09:22:36;102178.72;;;6.59;100.00
62694;BME280;48759;52.544;13.418;2023-02-15T09:25:04;102174.09;;;6.69;100.00
62694;BME280;48759;52.544;13.418;2023-02-15T09:27:31;102177.28;;;6.74;100.00
62694;BME280;48759;52.544;13.418;2023-02-15T09:29:58;102168.31;;;6.72;100.00
62694;BME280;48759;52.544;13.418;2023-02-15T09:32:24;102169.47;;;6.99;100.00
62694;BME280;48759;52.544;13.418;2023-02-15T09:34:51;102173.34;;;6.96;99.61
62694;BME280;48759;52.544;13.418;2023-02-15T09:37:18;102167.19;;;6.84;99.35
62694;BME280;48759;52.544;13.418;2023-02-15T09:39:45;102179.88;;;6.85;99.58
62694;BME280;48759;52.544;13.418;2023-02-15T09:42:36;102176.69;;;7.00;97.70
62694;BME280;48759;52.544;13.418;2023-02-15T09:45:23;102183.28;;;7.07;97.92
62694;BME280;48759;52.544;13.418;2023-02-15T09:48:17;102179.03;;;6.75;100.00
62694;BME280;48759;52.544;13.418;2023-02-15T09:51:01;102183.75;;;6.73;99.76
62694;BME280;48759;52.544;13.418;2023-02-15T09:53:45;102183.88;;;6.72;100.00
62694;BME280;48759;52.544;13.418;2023-02-15T09:56:19;102179.28;;;6.82;100.00
62694;BME280;48759;52.544;13.418;2023-02-15T09:58:55;102174.38;;;6.66;100.00
62694;BME280;48759;52.544;13.418;2023-02-15T10:01:35;102166.63;;;6.52;100.00
62694;BME280;48759;52.544;13.418;2023-02-15T10:04:26;102164.91;;;6.41;100.00
62694;BME280;48759;52.544;13.418;2023-02-15T10:07:01;102159.56;;;6.49;100.00
62694;BME280;48759;52.544;13.418;2023-02-15T10:09:51;102160.00;;;6.45;100.00
62694;BME280;48759;52.544;13.418;2023-02-15T10:12:54;102168.63;;;6.50;100.00
62694;BME280;48759;52.544;13.418;2023-02-15T10:15:37;102164.31;;;6.28;100.00
62694;BME280;48759;52.544;13.418;2023-02-15T10:18:22;102160.75;;;6.37;100.00
62694;BME280;48759;52.544;13.418;2023-02-15T10:20:57;102157.28;;;6.35;100.00
62694;BME280;48759;52.544;13.418;2023-02-15T10:23:41;102150.81;;;6.07;100.00
62694;BME280;48759;52.544;13.418;2023-02-15T10:26:16;102154.69;;;6.14;100.00
62694;BME280;48759;52.544;13.418;2023-02-15T10:28:48;102150.09;;;6.15;100.00
62694;BME280;48759;52.544;13.418;2023-02-15T10:31:23;102139.84;;;6.27;100.00
62694;BME280;48759;52.544;13.418;2023-02-15T10:34:00;102130.94;;;6.05;100.00
62694;BME280;48759;52.544;13.418;2023-02-15T10:36:43;102134.53;;;6.35;100.00
62694;BME280;48759;52.544;13.418;2023-02-15T10:39:20;102126.88;;;6.48;100.00
62694;BME280;48759;52.544;13.418;2023-02-15T10:41:53;102124.59;;;6.34;100.00
62694;BME280;48759;52.544;13.418;2023-02-15T10:44:32;102123.19;;;6.30;100.00
62694;BME280;48759;52.544;13.418;2023-02-15T10:47:15;102121.59;;;6.46;100.00
62694;BME280;48759;52.544;13.418;2023-02-15T10:49:58;102122.88;;;6.42;100.00
62694;BME280;48759;52.544;13.418;2023-02-15T10:52:39;102120.41;;;6.49;100.00
62694;BME280;48759;52.544;13.418;2023-02-15T10:55:16;102121.09;;;6.80;100.00
62694;BME280;48759;52.544;13.418;2023-02-15T10:57:52;102114.72;;;6.99;100.00
62694;BME280;48759;52.544;13.418;2023-02-15T11:00:26;102110.75;;;6.83;100.00
62694;BME280;48759;52.544;13.418;2023-02-15T11:05:58;102104.34;;;7.02;100.00
62694;BME280;48759;52.544;13.418;2023-02-15T11:08:31;102112.50;;;7.12;100.00
62694;BME280;48759;52.544;13.418;2023-02-15T11:11:01;102102.13;;;7.43;100.00
62694;BME280;48759;52.544;13.418;2023-02-15T11:13:33;102100.34;;;7.51;100.00
62694;BME280;48759;52.544;13.418;2023-02-15T11:16:04;102103.63;;;7.64;99.01
62694;BME280;48759;52.544;13.418;2023-02-15T11:18:36;102098.63;;;7.50;97.57
62694;BME280;48759;52.544;13.418;2023-02-15T11:21:10;102088.56;;;6.86;100.00
62694;BME280;48759;52.544;13.418;2023-02-15T11:23:42;102088.84;;;7.48;98.34
62694;BME280;48759;52.544;13.418;2023-02-15T11:26:13;102092.19;;;7.69;96.79
62694;BME280;48759;52.544;13.418;2023-02-15T11:28:43;102087.09;;;7.56;97.07
62694;BME280;48759;52.544;13.418;2023-02-15T11:31:13;102088.13;;;7.46;97.38
62694;BME280;48759;52.544;13.418;2023-02-15T11:33:44;102079.16;;;7.53;96.54
62694;BME280;48759;52.544;13.418;2023-02-15T11:36:15;102078.31;;;7.71;98.47
62694;BME280;48759;52.544;13.418;2023-02-15T11:38:44;102075.13;;;7.93;96.54
62694;BME280;48759;52.544;13.418;2023-02-15T11:41:16;102076.84;;;7.76;96.30
62694;BME280;48759;52.544;13.418;2023-02-15T11:43:49;102068.09;;;7.73;96.39
62694;BME280;48759;52.544;13.418;2023-02-15T11:46:17;102062.34;;;7.84;96.31
62694;BME280;48759;52.544;13.418;2023-02-15T11:48:48;102059.41;;;7.95;92.63
62694;BME280;48759;52.544;13.418;2023-02-15T11:51:18;102061.72;;;7.54;97.89
62694;BME280;48759;52.544;13.418;2023-02-15T11:53:46;102056.56;;;8.22;92.47
62694;BME280;48759;52.544;13.418;2023-02-15T11:56:15;102061.56;;;8.09;91.98
62694;BME280;48759;52.544;13.418;2023-02-15T11:58:44;102058.03;;;7.99;94.59
62694;BME280;48759;52.544;13.418;2023-02-15T12:01:16;102060.16;;;8.40;91.34
62694;BME280;48759;52.544;13.418;2023-02-15T12:03:52;102058.31;;;8.23;92.20
62694;BME280;48759;52.544;13.418;2023-02-15T12:06:24;102058.75;;;8.01;95.15
62694;BME280;48759;52.544;13.418;2023-02-15T12:09:01;102059.84;;;7.73;96.38
62694;BME280;48759;52.544;13.418;2023-02-15T12:11:33;102067.53;;;7.87;98.67
62694;BME280;48759;52.544;13.418;2023-02-15T12:14:02;102058.53;;;8.30;100.00
62694;BME280;48759;52.544;13.418;2023-02-15T12:16:40;102047.34;;;8.23;95.39
62694;BME280;48759;52.544;13.418;2023-02-15T12:19:21;102044.41;;;8.07;95.12
62694;BME280;48759;52.544;13.418;2023-02-15T12:21:51;102040.59;;;8.35;94.39
62694;BME280;48759;52.544;13.418;2023-02-15T12:24:21;102034.13;;;8.70;91.26
62694;BME280;48759;52.544;13.418;2023-02-15T12:26:56;102035.91;;;8.54;91.72
62694;BME280;48759;52.544;13.418;2023-02-15T12:29:27;102033.03;;;8.63;90.04
62694;BME280;48759;52.544;13.418;2023-02-15T12:31:56;102030.50;;;8.96;89.43
62694;BME280;48759;52.544;13.418;2023-02-15T12:34:29;102026.94;;;8.77;89.40
62694;BME280;48759;52.544;13.418;2023-02-15T12:37:00;102029.84;;;8.76;88.12
62694;BME280;48759;52.544;13.418;2023-02-15T12:39:29;102030.09;;;8.82;89.38
62694;BME280;48759;52.544;13.418;2023-02-15T12:41:59;102019.16;;;8.65;89.25
62694;BME280;48759;52.544;13.418;2023-02-15T12:44:28;102008.75;;;9.10;86.70
62694;BME280;48759;52.544;13.418;2023-02-15T12:46:57;102019.66;;;8.94;86.02
62694;BME280;48759;52.544;13.418;2023-02-15T12:49:26;102017.44;;;8.64;86.48
62694;BME280;48759;52.544;13.418;2023-02-15T12:51:54;102008.47;;;8.88;87.51
62694;BME280;48759;52.544;13.418;2023-02-15T12:54:29;102001.94;;;9.31;84.11
62694;BME280;48759;52.544;13.418;2023-02-15T12:56:56;101997.59;;;9.46;81.68
62694;BME280;48759;52.544;13.418;2023-02-15T12:59:24;102002.09;;;9.95;79.51
62694;BME280;48759;52.544;13.418;2023-02-15T13:01:51;101997.81;;;9.85;78.08
62694;BME280;48759;52.544;13.418;2023-02-15T13:04:23;101980.47;;;10.09;77.29